Time;durP1;ratioP1;P1;durP2;ratioP2;P2;SDS_P1;SDS_P2;PMS_P1;PMS_P2;Temp;Humidity;BMP_temperature;BMP_pressure;BME280_temperature;BME280_humidity;BME280_pressure;Samples;Min_cycle;Max_cycle;Signal;HPM_P1;HPM_P2
2021/03/23 00:00:53;;;;;;;3.40;1.40;;;;;;;;;;5064972;28;19921;-72
2021/03/23 00:03:29;;;;;;;2.53;1.20;;;;;;;;;;5031311;28;20029;-72
2021/03/23 00:05:54;;;;;;;3.97;1.38;;;;;;;;;;5015101;28;20072;-72
2021/03/23 00:08:30;;;;;;;3.57;1.30;;;;;;;;;;5015246;28;20033;-72
2021/03/23 00:10:56;;;;;;;3.38;1.30;;;;;;;;;;5034461;28;20122;-72
2021/03/23 00:13:22;;;;;;;2.50;1.20;;;;;;;;;;5051382;28;20507;-74
2021/03/23 00:15:47;;;;;;;2.73;1.20;;;;;;;;;;5020665;28;20033;-73
2021/03/23 00:18:13;;;;;;;2.80;1.20;;;;;;;;;;5034541;28;20037;-72
2021/03/23 00:20:38;;;;;;;3.17;1.30;;;;;;;;;;5050881;28;20041;-72
2021/03/23 00:23:04;;;;;;;2.80;1.30;;;;;;;;;;5031141;28;20033;-72
2021/03/23 00:25:30;;;;;;;2.75;1.15;;;;;;;;;;5014900;28;20050;-72
2021/03/23 00:27:55;;;;;;;3.73;1.17;;;;;;;;;;5018075;28;20124;-72
2021/03/23 00:30:21;;;;;;;2.70;1.20;;;;;;;;;;5002175;28;20071;-72
2021/03/23 00:32:46;;;;;;;3.30;1.10;;;;;;;;;;5015224;28;20424;-72
2021/03/23 00:35:12;;;;;;;2.97;1.40;;;;;;;;;;5017940;28;20060;-72
2021/03/23 00:37:37;;;;;;;3.13;1.30;;;;;;;;;;5054081;28;20091;-72
2021/03/23 00:40:03;;;;;;;3.40;1.20;;;;;;;;;;5054319;28;20484;-72
2021/03/23 00:42:29;;;;;;;4.97;1.35;;;;;;;;;;5034694;28;20033;-72
2021/03/23 00:44:54;;;;;;;4.27;1.40;;;;;;;;;;5038213;28;20071;-72
2021/03/23 00:47:19;;;;;;;3.40;1.13;;;;;;;;;;5054279;28;20053;-72
2021/03/23 00:49:45;;;;;;;2.50;1.40;;;;;;;;;;5054478;28;20040;-72
2021/03/23 00:52:10;;;;;;;2.63;1.10;;;;;;;;;;5054308;28;20056;-72
2021/03/23 00:54:35;;;;;;;4.17;1.20;;;;;;;;;;5052842;28;20083;-72
2021/03/23 00:57:01;;;;;;;3.83;1.20;;;;;;;;;;5055119;28;20064;-72
2021/03/23 00:59:26;;;;;;;3.50;1.20;;;;;;;;;;5070464;28;20048;-72
2021/03/23 01:01:52;;;;;;;3.03;1.20;;;;;;;;;;5054167;28;20123;-74
2021/03/23 01:04:17;;;;;;;1.90;0.80;;;;;;;;;;5070663;28;20076;-75
2021/03/23 01:06:42;;;;;;;2.07;1.10;;;;;;;;;;5034281;28;20041;-74
2021/03/23 01:09:08;;;;;;;3.20;1.23;;;;;;;;;;5030799;28;20076;-73
2021/03/23 01:11:33;;;;;;;2.63;1.30;;;;;;;;;;5014306;28;20037;-74
2021/03/23 01:13:58;;;;;;;2.20;1.10;;;;;;;;;;5014611;28;20123;-74
2021/03/23 01:16:24;;;;;;;3.30;1.10;;;;;;;;;;5052262;28;20064;-74
2021/03/23 01:18:49;;;;;;;2.77;1.30;;;;;;;;;;5053933;28;20045;-74
2021/03/23 01:21:15;;;;;;;2.80;1.33;;;;;;;;;;5053496;28;20057;-74
2021/03/23 01:23:40;;;;;;;4.37;1.10;;;;;;;;;;5053874;28;20067;-74
2021/03/23 01:26:05;;;;;;;3.40;1.20;;;;;;;;;;5038007;28;20042;-73
2021/03/23 01:28:31;;;;;;;3.10;1.10;;;;;;;;;;5017503;28;20026;-74
2021/03/23 01:30:56;;;;;;;2.73;1.20;;;;;;;;;;5017322;28;20480;-74
2021/03/23 01:33:21;;;;;;;2.67;1.20;;;;;;;;;;5045587;28;20128;-74
2021/03/23 01:35:47;;;;;;;3.30;1.30;;;;;;;;;;5040446;28;20126;-74
2021/03/23 01:38:12;;;;;;;2.87;1.17;;;;;;;;;;5017340;28;20442;-74
2021/03/23 01:40:39;;;;;;;3.60;1.40;;;;;;;;;;5017231;28;20472;-74
2021/03/23 01:43:04;;;;;;;;;;;;;;;;;;5038856;28;20036;-74
2021/03/23 01:45:39;;;;;;;2.08;1.00;;;;;;;;;;5053063;28;19913;-74
2021/03/23 01:48:08;;;;;;;3.35;1.25;;;;;;;;;;5021098;28;20432;-74
2021/03/23 01:50:33;;;;;;;2.50;1.02;;;;;;;;;;5017257;28;20037;-74
2021/03/23 01:53:08;;;;;;;2.50;1.30;;;;;;;;;;5035846;28;20056;-74
2021/03/23 01:55:33;;;;;;;3.42;1.17;;;;;;;;;;5053343;28;20029;-74
2021/03/23 01:57:59;;;;;;;2.83;1.13;;;;;;;;;;5052380;28;20171;-74
2021/03/23 02:00:24;;;;;;;2.73;1.10;;;;;;;;;;5016903;28;20072;-74
2021/03/23 02:02:49;;;;;;;3.33;1.30;;;;;;;;;;5040708;28;20032;-74
2021/03/23 02:05:22;;;;;;;3.70;1.30;;;;;;;;;;5053042;28;20102;-74
2021/03/23 02:07:47;;;;;;;2.42;1.15;;;;;;;;;;5044728;28;20033;-74
2021/03/23 02:10:12;;;;;;;2.93;1.10;;;;;;;;;;5027969;28;20183;-74
2021/03/23 02:12:38;;;;;;;2.03;1.00;;;;;;;;;;5032709;28;20048;-74
2021/03/23 02:15:06;;;;;;;2.97;1.13;;;;;;;;;;5016579;28;20123;-74
2021/03/23 02:17:33;;;;;;;3.47;1.10;;;;;;;;;;4984513;28;20046;-74
2021/03/23 02:20:08;;;;;;;3.17;1.15;;;;;;;;;;5013023;28;20033;-73
2021/03/23 02:22:46;;;;;;;3.15;1.30;;;;;;;;;;5051135;28;20044;-74
2021/03/23 02:25:13;;;;;;;3.75;1.23;;;;;;;;;;5017129;28;20036;-74
2021/03/23 02:27:38;;;;;;;;;;;;;;;;;;5033416;28;20028;-74
2021/03/23 02:30:07;;;;;;;2.80;1.30;;;;;;;;;;5049384;28;20280;-74
2021/03/23 02:32:32;;;;;;;1.95;1.00;;;;;;;;;;5048894;28;20041;-75
2021/03/23 02:34:58;;;;;;;2.90;1.27;;;;;;;;;;5016205;28;20113;-74
2021/03/23 02:37:23;;;;;;;3.63;1.20;;;;;;;;;;5032736;28;20120;-74
2021/03/23 02:39:48;;;;;;;2.77;1.30;;;;;;;;;;5015531;28;20033;-74
2021/03/23 02:42:14;;;;;;;3.47;1.30;;;;;;;;;;5015959;28;20033;-74
2021/03/23 02:44:44;;;;;;;2.23;1.07;;;;;;;;;;5015398;28;20057;-74
2021/03/23 02:47:10;;;;;;;2.80;1.10;;;;;;;;;;5060676;28;20553;-74
2021/03/23 02:49:35;;;;;;;2.60;0.97;;;;;;;;;;5066621;28;20045;-74
2021/03/23 02:52:00;;;;;;;2.57;0.93;;;;;;;;;;5069041;28;20072;-74
2021/03/23 02:54:26;;;;;;;3.67;1.27;;;;;;;;;;5030903;28;20493;-74
2021/03/23 02:56:51;;;;;;;2.13;1.10;;;;;;;;;;5042041;28;20036;-74
2021/03/23 02:59:16;;;;;;;2.83;1.00;;;;;;;;;;5041136;28;20489;-74
2021/03/23 03:01:42;;;;;;;2.70;1.10;;;;;;;;;;4999331;28;20160;-74
2021/03/23 03:04:07;;;;;;;2.63;1.10;;;;;;;;;;5013569;28;20136;-74
2021/03/23 03:06:32;;;;;;;3.60;1.07;;;;;;;;;;5053202;28;20090;-74
2021/03/23 03:08:58;;;;;;;2.90;1.20;;;;;;;;;;5023764;28;20456;-74
2021/03/23 03:11:23;;;;;;;3.03;1.10;;;;;;;;;;5031929;28;20072;-74
2021/03/23 03:13:48;;;;;;;3.63;1.00;;;;;;;;;;5043763;28;20071;-74
2021/03/23 03:16:14;;;;;;;2.40;1.10;;;;;;;;;;5050915;28;20083;-74
2021/03/23 03:18:39;;;;;;;3.93;1.17;;;;;;;;;;5035221;28;20064;-74
2021/03/23 03:21:05;;;;;;;2.33;1.20;;;;;;;;;;5052978;28;20167;-74
2021/03/23 03:23:30;;;;;;;2.17;1.10;;;;;;;;;;5042700;28;20455;-74
2021/03/23 03:25:56;;;;;;;2.60;1.10;;;;;;;;;;5025938;28;20402;-74
2021/03/23 03:28:21;;;;;;;2.03;1.20;;;;;;;;;;5049299;28;20491;-74
2021/03/23 03:30:47;;;;;;;2.67;1.17;;;;;;;;;;5015476;28;20563;-74
2021/03/23 03:33:14;;;;;;;3.83;1.10;;;;;;;;;;5024645;28;20127;-74
2021/03/23 03:35:40;;;;;;;1.65;1.00;;;;;;;;;;5034905;22;20054;-77
2021/03/23 03:38:06;;;;;;;3.42;1.40;;;;;;;;;;4961870;28;20042;-77
2021/03/23 03:40:40;;;;;;;2.67;1.07;;;;;;;;;;4945057;28;20036;-77
2021/03/23 03:43:06;;;;;;;2.50;1.23;;;;;;;;;;4954176;28;20048;-77
2021/03/23 03:45:31;;;;;;;2.97;1.33;;;;;;;;;;4996682;28;20461;-77
2021/03/23 03:47:57;;;;;;;2.03;0.90;;;;;;;;;;4980999;28;20503;-77
2021/03/23 03:50:24;;;;;;;2.43;1.20;;;;;;;;;;4978717;28;20488;-77
2021/03/23 03:52:49;;;;;;;2.42;1.10;;;;;;;;;;4974699;28;20067;-77
2021/03/23 03:55:15;;;;;;;2.50;1.07;;;;;;;;;;4961205;28;20105;-77
2021/03/23 03:57:41;;;;;;;2.78;1.20;;;;;;;;;;4961379;28;20061;-77
2021/03/23 04:00:07;;;;;;;2.10;1.00;;;;;;;;;;4974303;28;20077;-77
2021/03/23 04:02:32;;;;;;;1.95;1.00;;;;;;;;;;4999210;28;20392;-77
2021/03/23 04:04:57;;;;;;;1.97;0.93;;;;;;;;;;5000602;28;20105;-77
2021/03/23 04:07:23;;;;;;;2.00;1.00;;;;;;;;;;4983838;28;20065;-77
2021/03/23 04:09:48;;;;;;;3.43;1.27;;;;;;;;;;4973844;28;20074;-77
2021/03/23 04:12:14;;;;;;;2.40;1.20;;;;;;;;;;4948982;28;20073;-77
2021/03/23 04:14:39;;;;;;;2.47;1.27;;;;;;;;;;4963573;28;20129;-77
2021/03/23 04:17:04;;;;;;;3.23;1.23;;;;;;;;;;5004853;28;20034;-77
2021/03/23 04:19:30;;;;;;;3.10;1.20;;;;;;;;;;5000122;28;20037;-77
2021/03/23 04:21:56;;;;;;;2.33;1.10;;;;;;;;;;5000119;28;20063;-77
2021/03/23 04:24:21;;;;;;;2.43;1.20;;;;;;;;;;4964400;28;20130;-77
2021/03/23 04:26:46;;;;;;;3.27;1.30;;;;;;;;;;4970522;28;20030;-77
2021/03/23 04:29:12;;;;;;;2.73;1.00;;;;;;;;;;4994849;28;20473;-77
2021/03/23 04:31:39;;;;;;;2.20;1.10;;;;;;;;;;4964654;28;20057;-77
2021/03/23 04:34:04;;;;;;;2.65;1.10;;;;;;;;;;4979766;28;20045;-77
2021/03/23 04:36:30;;;;;;;2.80;1.40;;;;;;;;;;4997371;28;20037;-77
2021/03/23 04:38:55;;;;;;;2.10;1.10;;;;;;;;;;4983357;28;20101;-77
2021/03/23 04:41:21;;;;;;;2.27;1.00;;;;;;;;;;4982912;28;20040;-77
2021/03/23 04:43:48;;;;;;;2.80;1.17;;;;;;;;;;4971546;28;20417;-77
2021/03/23 04:46:14;;;;;;;2.17;1.02;;;;;;;;;;4963811;28;20077;-77
2021/03/23 04:48:39;;;;;;;1.92;0.90;;;;;;;;;;4948006;28;20030;-77
2021/03/23 04:51:06;;;;;;;2.73;1.20;;;;;;;;;;4948919;28;20405;-77
2021/03/23 04:53:33;;;;;;;3.30;1.15;;;;;;;;;;4980180;28;20030;-77
2021/03/23 04:55:59;;;;;;;3.45;1.13;;;;;;;;;;4963727;28;20065;-77
2021/03/23 04:58:24;;;;;;;2.80;1.17;;;;;;;;;;4965299;28;20589;-77
2021/03/23 05:00:50;;;;;;;2.43;1.30;;;;;;;;;;4980368;28;20388;-75
2021/03/23 05:03:22;;;;;;;2.27;1.10;;;;;;;;;;4980590;28;20054;-76
2021/03/23 05:05:51;;;;;;;2.92;1.08;;;;;;;;;;4963946;28;20038;-76
2021/03/23 05:08:17;;;;;;;1.77;1.00;;;;;;;;;;4963001;28;20100;-76
2021/03/23 05:10:42;;;;;;;2.80;1.13;;;;;;;;;;4979396;28;20117;-76
2021/03/23 05:13:08;;;;;;;3.13;1.27;;;;;;;;;;4971271;28;20069;-76
2021/03/23 05:15:33;;;;;;;2.13;1.10;;;;;;;;;;4982616;28;20041;-77
2021/03/23 05:17:58;;;;;;;1.67;1.00;;;;;;;;;;5000717;28;20474;-77
2021/03/23 05:20:24;;;;;;;2.93;1.00;;;;;;;;;;5000734;28;20056;-77
2021/03/23 05:22:49;;;;;;;3.43;1.20;;;;;;;;;;4980960;28;20121;-76
2021/03/23 05:25:14;;;;;;;3.00;1.40;;;;;;;;;;5012388;28;20034;-76
2021/03/23 05:27:40;;;;;;;2.30;1.00;;;;;;;;;;4979918;28;20473;-76
2021/03/23 05:30:06;;;;;;;1.93;0.90;;;;;;;;;;4980068;28;20053;-76
2021/03/23 05:32:31;;;;;;;2.13;1.10;;;;;;;;;;4967452;28;20109;-76
2021/03/23 05:34:57;;;;;;;2.43;1.20;;;;;;;;;;5015245;28;20129;-76
2021/03/23 05:37:22;;;;;;;3.10;1.50;;;;;;;;;;4997695;28;20117;-76
2021/03/23 05:39:47;;;;;;;2.50;1.20;;;;;;;;;;4965574;28;20058;-76
2021/03/23 05:42:41;;;;;;;3.47;1.20;;;;;;;;;;4979371;28;20553;-76
2021/03/23 05:45:31;;;;;;;2.47;1.00;;;;;;;;;;4999524;28;20053;-76
2021/03/23 05:48:21;;;;;;;3.00;1.20;;;;;;;;;;4998087;28;20034;-76
2021/03/23 05:50:58;;;;;;;2.40;1.10;;;;;;;;;;4981138;28;20061;-76
2021/03/23 05:53:28;;;;;;;;;;;;;;;;;;4986873;28;20046;-76
2021/03/23 05:55:53;;;;;;;2.13;0.95;;;;;;;;;;4977261;28;20034;-75
2021/03/23 05:58:26;;;;;;;2.53;1.13;;;;;;;;;;4967143;28;20580;-76
2021/03/23 06:01:26;;;;;;;2.30;1.08;;;;;;;;;;4981365;28;20026;-76
2021/03/23 06:04:21;;;;;;;2.33;1.10;;;;;;;;;;5012589;28;20081;-75
2021/03/23 06:07:03;;;;;;;3.75;1.25;;;;;;;;;;4989369;28;20030;-76
2021/03/23 06:09:37;;;;;;;4.03;1.38;;;;;;;;;;4966634;28;20512;-76
2021/03/23 06:12:12;;;;;;;2.55;1.20;;;;;;;;;;4980992;28;20096;-76
2021/03/23 06:14:45;;;;;;;2.78;1.20;;;;;;;;;;4982122;28;20042;-76
2021/03/23 06:17:31;;;;;;;3.03;0.95;;;;;;;;;;4993673;28;20101;-76
2021/03/23 06:20:00;;;;;;;2.83;1.10;;;;;;;;;;4983580;28;20022;-76
2021/03/23 06:22:25;;;;;;;2.40;1.00;;;;;;;;;;4996733;28;20046;-75
2021/03/23 06:25:13;;;;;;;2.07;1.10;;;;;;;;;;5013884;28;20033;-76
2021/03/23 06:27:46;;;;;;;2.80;1.25;;;;;;;;;;5013113;28;20033;-76
2021/03/23 06:30:36;;;;;;;1.95;1.10;;;;;;;;;;4995829;28;20069;-75
2021/03/23 06:33:02;;;;;;;2.20;0.90;;;;;;;;;;4993243;28;20089;-76
2021/03/23 06:35:40;;;;;;;1.57;1.00;;;;;;;;;;4977125;28;20125;-76
2021/03/23 06:38:06;;;;;;;2.55;1.27;;;;;;;;;;4977698;28;20089;-76
2021/03/23 06:40:33;;;;;;;3.22;1.05;;;;;;;;;;4977133;28;20030;-75
2021/03/23 06:43:28;;;;;;;1.90;1.10;;;;;;;;;;4977035;28;20039;-76
2021/03/23 06:46:01;;;;;;;2.20;0.93;;;;;;;;;;4975435;28;20042;-76
2021/03/23 06:48:28;;;;;;;2.80;1.02;;;;;;;;;;4977060;28;20117;-75
2021/03/23 06:51:11;;;;;;;2.40;1.05;;;;;;;;;;4960660;28;20034;-75
2021/03/23 06:53:36;;;;;;;2.13;1.10;;;;;;;;;;4976993;28;20108;-76
2021/03/23 06:56:15;;;;;;;2.10;1.00;;;;;;;;;;4976945;28;20390;-76
2021/03/23 06:58:41;;;;;;;2.17;1.10;;;;;;;;;;4993134;28;20037;-76
2021/03/23 07:01:15;;;;;;;3.27;1.20;;;;;;;;;;4993132;28;20034;-76
2021/03/23 07:03:51;;;;;;;2.15;1.10;;;;;;;;;;4994114;28;20570;-76
2021/03/23 07:06:27;;;;;;;2.15;1.00;;;;;;;;;;4976818;28;20101;-76
2021/03/23 07:09:05;;;;;;;3.00;1.27;;;;;;;;;;4992982;28;20117;-76
2021/03/23 07:11:54;;;;;;;2.42;1.30;;;;;;;;;;4994131;28;20046;-76
2021/03/23 07:14:24;;;;;;;2.47;1.15;;;;;;;;;;4976534;28;20061;-76
2021/03/23 07:16:49;;;;;;;3.13;1.27;;;;;;;;;;4976726;28;20109;-76
2021/03/23 07:19:15;;;;;;;2.17;1.00;;;;;;;;;;4976594;28;20117;-76
2021/03/23 07:21:43;;;;;;;2.50;1.13;;;;;;;;;;4960310;28;20121;-76
2021/03/23 07:24:18;;;;;;;2.08;1.15;;;;;;;;;;4960310;28;20096;-76
2021/03/23 07:26:59;;;;;;;2.70;1.00;;;;;;;;;;4992827;28;20032;-76
2021/03/23 07:29:27;;;;;;;1.90;1.00;;;;;;;;;;4992654;28;20405;-76
2021/03/23 07:32:33;;;;;;;3.40;1.20;;;;;;;;;;4976677;28;20127;-76
2021/03/23 07:35:07;;;;;;;1.95;0.95;;;;;;;;;;4976030;28;20453;-76
2021/03/23 07:37:42;;;;;;;2.67;1.10;;;;;;;;;;4993994;28;20410;-76
2021/03/23 07:40:19;;;;;;;1.85;1.00;;;;;;;;;;4960083;28;20038;-76
2021/03/23 07:42:53;;;;;;;2.42;1.00;;;;;;;;;;4976276;28;20030;-76
2021/03/23 07:45:27;;;;;;;3.08;1.25;;;;;;;;;;4960179;28;20034;-76
2021/03/23 07:47:54;;;;;;;2.40;1.30;;;;;;;;;;4992828;28;20049;-76
2021/03/23 07:50:32;;;;;;;3.33;1.20;;;;;;;;;;4992528;28;20160;-76
2021/03/23 07:53:22;;;;;;;2.60;1.20;;;;;;;;;;4976058;28;20039;-76
2021/03/23 07:55:49;;;;;;;2.22;1.02;;;;;;;;;;4976117;28;20030;-76
2021/03/23 07:58:17;;;;;;;2.88;1.00;;;;;;;;;;4960134;28;20402;-76
2021/03/23 08:01:21;;;;;;;2.70;1.10;;;;;;;;;;4992393;28;20045;-76
2021/03/23 08:04:03;;;;;;;2.00;1.10;;;;;;;;;;4970797;28;20113;-76
2021/03/23 08:06:45;;;;;;;3.08;1.10;;;;;;;;;;4992356;28;20026;-76
2021/03/23 08:09:17;;;;;;;3.38;1.30;;;;;;;;;;4992520;28;20034;-76
2021/03/23 08:11:48;;;;;;;3.42;1.10;;;;;;;;;;4993640;28;20121;-76
2021/03/23 08:14:38;;;;;;;2.28;0.85;;;;;;;;;;4993405;28;20048;-76
2021/03/23 08:17:32;;;;;;;3.58;1.00;;;;;;;;;;4993451;28;20035;-76
2021/03/23 08:20:16;;;;;;;2.80;1.10;;;;;;;;;;4977764;28;20030;-76
2021/03/23 08:22:58;;;;;;;2.55;1.20;;;;;;;;;;4993633;28;20605;-76
2021/03/23 08:25:38;;;;;;;2.35;1.13;;;;;;;;;;4977466;28;20042;-76
2021/03/23 08:28:21;;;;;;;1.23;0.90;;;;;;;;;;4993280;28;20501;-76
2021/03/23 08:31:13;;;;;;;2.65;1.38;;;;;;;;;;4959623;28;20066;-75
2021/03/23 08:33:54;;;;;;;3.03;1.10;;;;;;;;;;4993437;28;20057;-76
2021/03/23 08:36:44;;;;;;;2.65;1.10;;;;;;;;;;4993091;28;20129;-76
2021/03/23 08:39:20;;;;;;;3.25;1.20;;;;;;;;;;4975776;28;20494;-76
2021/03/23 08:42:06;;;;;;;2.63;1.00;;;;;;;;;;4960323;28;20042;-76
2021/03/23 08:44:34;;;;;;;2.10;1.00;;;;;;;;;;4975840;28;20037;-76
2021/03/23 08:47:21;;;;;;;2.03;1.08;;;;;;;;;;4960302;28;20034;-77
2021/03/23 08:49:46;;;;;;;3.65;1.13;;;;;;;;;;4981929;28;20045;-76
2021/03/23 08:52:31;;;;;;;3.73;1.20;;;;;;;;;;4963158;28;20038;-76
2021/03/23 08:54:58;;;;;;;1.98;0.90;;;;;;;;;;5008455;28;20092;-76
2021/03/23 08:57:23;;;;;;;;;;;;;;;;;;5002275;28;20500;-76
2021/03/23 08:59:52;;;;;;;1.83;0.83;;;;;;;;;;5034621;28;19923;-75
2021/03/23 09:02:18;;;;;;;1.98;0.98;;;;;;;;;;5001591;28;20038;-76
2021/03/23 09:04:54;;;;;;;2.23;1.10;;;;;;;;;;5018109;28;20044;-76
2021/03/23 09:07:21;;;;;;;2.73;1.20;;;;;;;;;;5018018;28;20037;-76
2021/03/23 09:09:50;;;;;;;2.63;1.33;;;;;;;;;;5002668;28;20033;-76
2021/03/23 09:12:42;;;;;;;2.25;0.95;;;;;;;;;;4987786;28;20029;-76
2021/03/23 09:15:23;;;;;;;2.45;1.13;;;;;;;;;;4982317;28;20033;-75
2021/03/23 09:18:02;;;;;;;2.15;1.02;;;;;;;;;;5000073;28;20073;-76
2021/03/23 09:20:34;;;;;;;2.50;1.10;;;;;;;;;;5014577;28;20049;-75
2021/03/23 09:23:15;;;;;;;3.85;1.30;;;;;;;;;;5015483;28;20033;-76
2021/03/23 09:26:03;;;;;;;3.03;1.20;;;;;;;;;;4995575;28;20041;-76
2021/03/23 09:28:28;;;;;;;2.33;1.08;;;;;;;;;;4962946;28;20041;-76
2021/03/23 09:30:55;;;;;;;2.30;1.00;;;;;;;;;;4990541;28;20133;-76
2021/03/23 09:33:23;;;;;;;2.15;1.10;;;;;;;;;;4978514;28;20117;-76
2021/03/23 09:36:05;;;;;;;2.30;1.20;;;;;;;;;;5019156;22;20501;-75
2021/03/23 09:38:38;;;;;;;2.10;0.98;;;;;;;;;;5017708;28;20045;-74
2021/03/23 09:41:05;;;;;;;2.50;1.10;;;;;;;;;;4982493;28;20033;-74
2021/03/23 09:43:36;;;;;;;2.38;1.10;;;;;;;;;;4996389;28;20484;-74
2021/03/23 09:46:10;;;;;;;2.05;1.10;;;;;;;;;;5001476;28;20042;-74
2021/03/23 09:48:55;;;;;;;2.13;1.00;;;;;;;;;;4978720;28;20120;-72
2021/03/23 09:51:39;;;;;;;1.63;1.00;;;;;;;;;;5003591;28;20033;-74
2021/03/23 09:54:24;;;;;;;1.77;1.05;;;;;;;;;;4985707;28;20568;-74
2021/03/23 09:56:50;;;;;;;2.03;1.02;;;;;;;;;;5015273;28;20542;-74
2021/03/23 09:59:20;;;;;;;1.58;0.80;;;;;;;;;;5008320;28;20033;-74
2021/03/23 10:02:12;;;;;;;2.35;1.15;;;;;;;;;;4990382;28;20030;-74
2021/03/23 10:04:39;;;;;;;2.97;1.08;;;;;;;;;;4992690;28;20140;-74
2021/03/23 10:07:05;;;;;;;2.30;1.20;;;;;;;;;;5027782;28;20033;-74
2021/03/23 10:09:32;;;;;;;;;;;;;;;;;;4999140;28;20492;-74
2021/03/23 10:11:57;;;;;;;2.67;1.10;;;;;;;;;;4997755;28;19916;-74
2021/03/23 10:14:28;;;;;;;2.63;1.30;;;;;;;;;;5011750;28;20029;-74
2021/03/23 10:17:04;;;;;;;2.15;1.10;;;;;;;;;;5005689;28;20044;-74
2021/03/23 10:19:34;;;;;;;1.75;0.90;;;;;;;;;;5016677;28;20491;-74
2021/03/23 10:22:00;;;;;;;2.58;0.98;;;;;;;;;;5021575;28;20566;-74
2021/03/23 10:24:26;;;;;;;2.37;1.10;;;;;;;;;;5000022;28;20112;-74
2021/03/23 10:26:52;;;;;;;1.90;1.17;;;;;;;;;;4988833;28;20520;-74
2021/03/23 10:29:17;;;;;;;1.65;0.98;;;;;;;;;;5000420;28;20376;-74
2021/03/23 10:31:46;;;;;;;1.90;1.10;;;;;;;;;;5013950;28;20037;-74
2021/03/23 10:34:20;;;;;;;2.05;1.10;;;;;;;;;;4977666;28;20052;-74
2021/03/23 10:36:48;;;;;;;2.15;1.10;;;;;;;;;;5004241;28;20038;-74
2021/03/23 10:39:39;;;;;;;2.15;1.02;;;;;;;;;;4998470;28;20041;-74
2021/03/23 10:42:30;;;;;;;3.25;1.30;;;;;;;;;;5015737;28;20124;-74
2021/03/23 10:45:28;;;;;;;2.22;1.08;;;;;;;;;;5000732;28;20044;-74
2021/03/23 10:48:24;;;;;;;2.05;1.10;;;;;;;;;;5006164;28;20105;-74
2021/03/23 10:51:05;;;;;;;2.22;1.00;;;;;;;;;;5010358;28;20065;-74
2021/03/23 10:53:30;;;;;;;2.17;1.05;;;;;;;;;;5030946;28;20257;-74
2021/03/23 10:55:56;;;;;;;2.53;1.13;;;;;;;;;;4980375;28;20113;-75
2021/03/23 10:58:25;;;;;;;1.47;0.80;;;;;;;;;;4995196;28;20122;-75
2021/03/23 11:01:17;;;;;;;1.90;1.00;;;;;;;;;;4960770;28;20077;-75
2021/03/23 11:03:44;;;;;;;2.80;1.00;;;;;;;;;;4998368;28;20037;-75
2021/03/23 11:06:45;;;;;;;1.55;1.00;;;;;;;;;;4999626;28;20034;-75
2021/03/23 11:09:14;;;;;;;1.77;0.98;;;;;;;;;;4944854;29;20039;-75
2021/03/23 11:11:40;;;;;;;1.67;0.90;;;;;;;;;;4992166;28;20030;-75
2021/03/23 11:14:05;;;;;;;2.00;1.13;;;;;;;;;;4976566;28;20508;-74
2021/03/23 11:16:32;;;;;;;2.23;1.00;;;;;;;;;;4992594;28;20458;-74
2021/03/23 11:19:00;;;;;;;;;;;;;;;;;;5027127;28;20037;-72
2021/03/23 11:21:25;;;;;;;2.10;1.00;;;;;;;;;;5015890;28;19915;-74
2021/03/23 11:23:51;;;;;;;1.80;1.00;;;;;;;;;;5005989;28;20038;-75
2021/03/23 11:26:24;;;;;;;2.28;1.10;;;;;;;;;;4984840;28;20460;-74
2021/03/23 11:28:53;;;;;;;2.03;1.00;;;;;;;;;;4993762;28;20033;-74
2021/03/23 11:31:18;;;;;;;2.53;1.10;;;;;;;;;;4980416;28;20033;-75
2021/03/23 11:33:44;;;;;;;2.53;1.10;;;;;;;;;;4982028;28;20049;-74
2021/03/23 11:36:11;;;;;;;2.57;1.10;;;;;;;;;;5013186;28;20057;-75
2021/03/23 11:38:36;;;;;;;2.40;0.95;;;;;;;;;;4981362;28;20030;-73
2021/03/23 11:41:03;;;;;;;1.73;0.90;;;;;;;;;;5032840;28;20046;-75
2021/03/23 11:43:45;;;;;;;2.38;1.05;;;;;;;;;;4999168;28;20108;-75
2021/03/23 11:46:17;;;;;;;2.00;0.93;;;;;;;;;;5015122;28;20511;-74
2021/03/23 11:48:49;;;;;;;1.42;0.88;;;;;;;;;;5022261;28;20109;-74
2021/03/23 11:51:14;;;;;;;2.95;0.98;;;;;;;;;;4980219;28;20493;-73
2021/03/23 11:53:40;;;;;;;1.67;1.00;;;;;;;;;;5023090;28;20091;-74
2021/03/23 11:56:06;;;;;;;1.83;1.00;;;;;;;;;;5028336;28;20049;-74
2021/03/23 11:58:31;;;;;;;2.17;1.10;;;;;;;;;;4995003;28;20481;-74
2021/03/23 12:00:57;;;;;;;1.47;0.87;;;;;;;;;;4981707;28;20034;-74
2021/03/23 12:03:22;;;;;;;2.20;1.00;;;;;;;;;;5013161;28;20038;-74
2021/03/23 12:05:48;;;;;;;1.93;1.00;;;;;;;;;;4991942;28;20029;-74
2021/03/23 12:08:22;;;;;;;2.43;1.33;;;;;;;;;;5014741;28;20128;-74
2021/03/23 12:11:20;;;;;;;1.45;0.90;;;;;;;;;;5008864;28;20144;-74
2021/03/23 12:14:07;;;;;;;2.67;1.10;;;;;;;;;;4995661;28;20088;-74
2021/03/23 12:16:37;;;;;;;1.50;0.88;;;;;;;;;;4990804;28;20033;-75
2021/03/23 12:19:07;;;;;;;2.15;1.00;;;;;;;;;;5014999;28;20041;-75
2021/03/23 12:21:33;;;;;;;1.67;0.93;;;;;;;;;;4997562;28;20503;-75
2021/03/23 12:23:59;;;;;;;2.03;1.10;;;;;;;;;;4994481;28;20050;-74
2021/03/23 12:26:24;;;;;;;2.17;1.10;;;;;;;;;;5035147;28;20083;-73
2021/03/23 12:28:49;;;;;;;2.37;1.20;;;;;;;;;;4990190;28;20041;-74
2021/03/23 12:31:15;;;;;;;1.53;0.90;;;;;;;;;;5009210;28;20485;-74
2021/03/23 12:33:41;;;;;;;2.75;1.10;;;;;;;;;;4997513;28;20163;-74
2021/03/23 12:36:06;;;;;;;1.97;0.93;;;;;;;;;;4983153;28;20117;-74
2021/03/23 12:38:32;;;;;;;2.37;1.20;;;;;;;;;;5001625;28;20205;-74
2021/03/23 12:40:57;;;;;;;2.90;1.20;;;;;;;;;;4987030;28;20025;-74
2021/03/23 12:43:26;;;;;;;2.50;1.10;;;;;;;;;;5002179;28;20116;-75
2021/03/23 12:45:53;;;;;;;2.83;1.05;;;;;;;;;;5018749;28;20029;-74
2021/03/23 12:48:18;;;;;;;1.55;0.90;;;;;;;;;;5002186;28;20026;-74
2021/03/23 12:50:44;;;;;;;2.17;0.93;;;;;;;;;;5004172;28;20030;-74
2021/03/23 12:53:12;;;;;;;2.03;1.10;;;;;;;;;;5003563;28;20029;-74
2021/03/23 12:55:37;;;;;;;2.10;1.00;;;;;;;;;;4975962;28;20041;-74
2021/03/23 12:58:03;;;;;;;2.07;1.00;;;;;;;;;;4994857;28;20161;-74
2021/03/23 13:00:33;;;;;;;1.90;1.00;;;;;;;;;;4993891;28;20030;-74
2021/03/23 13:02:59;;;;;;;2.13;1.00;;;;;;;;;;5011499;28;20124;-74
2021/03/23 13:05:24;;;;;;;1.57;0.80;;;;;;;;;;5018034;28;20030;-74
2021/03/23 13:07:51;;;;;;;2.30;1.17;;;;;;;;;;5007704;28;20342;-74
2021/03/23 13:10:39;;;;;;;2.13;1.05;;;;;;;;;;5001836;28;20073;-74
2021/03/23 13:13:13;;;;;;;1.65;0.95;;;;;;;;;;4979076;28;20074;-74
2021/03/23 13:15:39;;;;;;;1.77;0.90;;;;;;;;;;5000451;28;20033;-74
2021/03/23 13:18:04;;;;;;;2.27;1.03;;;;;;;;;;4993270;28;20113;-74
2021/03/23 13:20:30;;;;;;;1.70;1.00;;;;;;;;;;4998651;28;20125;-74
2021/03/23 13:23:00;;;;;;;4.53;0.80;;;;;;;;;;5018697;28;20468;-74
2021/03/23 13:25:38;;;;;;;2.17;1.08;;;;;;;;;;4997978;28;20033;-74
2021/03/23 13:28:26;;;;;;;2.33;0.80;;;;;;;;;;4998060;28;20037;-74
2021/03/23 13:30:52;;;;;;;5.70;1.30;;;;;;;;;;4996443;28;20045;-74
2021/03/23 13:33:18;;;;;;;2.63;1.17;;;;;;;;;;4993779;28;20548;-74
2021/03/23 13:35:43;;;;;;;1.70;1.00;;;;;;;;;;4978425;28;20117;-74
2021/03/23 13:38:13;;;;;;;1.93;1.00;;;;;;;;;;4962343;28;20034;-74
2021/03/23 13:40:41;;;;;;;1.65;0.93;;;;;;;;;;4978523;28;20030;-74
2021/03/23 13:43:06;;;;;;;1.95;1.02;;;;;;;;;;4962879;28;20038;-75
2021/03/23 13:45:51;;;;;;;3.77;1.10;;;;;;;;;;4962158;28;20127;-75
2021/03/23 13:48:19;;;;;;;2.25;1.00;;;;;;;;;;4978680;28;20034;-75
2021/03/23 13:50:45;;;;;;;2.08;1.25;;;;;;;;;;4978293;28;20061;-75
2021/03/23 13:53:13;;;;;;;1.83;1.00;;;;;;;;;;4946016;28;20034;-75
2021/03/23 13:55:38;;;;;;;4.18;1.20;;;;;;;;;;4962086;28;20030;-75
2021/03/23 13:58:03;;;;;;;2.27;1.03;;;;;;;;;;4978007;28;20037;-75
2021/03/23 14:00:31;;;;;;;2.17;0.90;;;;;;;;;;4962097;28;20113;-75
2021/03/23 14:02:57;;;;;;;2.10;0.95;;;;;;;;;;4978219;28;20026;-75
2021/03/23 14:05:22;;;;;;;2.47;1.00;;;;;;;;;;4961796;28;20401;-75
2021/03/23 14:07:49;;;;;;;2.47;1.00;;;;;;;;;;4993999;28;20030;-75
2021/03/23 14:10:16;;;;;;;1.88;0.90;;;;;;;;;;4961682;28;20062;-75
2021/03/23 14:12:42;;;;;;;2.05;0.90;;;;;;;;;;4961844;28;20046;-75
2021/03/23 14:15:07;;;;;;;2.13;1.20;;;;;;;;;;4961522;28;20481;-75
2021/03/23 14:17:33;;;;;;;3.33;1.10;;;;;;;;;;4945301;28;20038;-75
2021/03/23 14:19:59;;;;;;;3.83;1.07;;;;;;;;;;4994949;28;20301;-75
2021/03/23 14:22:29;;;;;;;2.05;0.98;;;;;;;;;;4945332;28;20046;-75
2021/03/23 14:24:56;;;;;;;2.45;1.10;;;;;;;;;;4946049;28;20034;-75
2021/03/23 14:27:21;;;;;;;2.95;1.17;;;;;;;;;;4961412;28;20045;-75
2021/03/23 14:29:46;;;;;;;2.27;1.17;;;;;;;;;;4977261;28;20022;-75
2021/03/23 14:32:12;;;;;;;3.27;1.20;;;;;;;;;;4977085;28;20038;-75
2021/03/23 14:34:37;;;;;;;4.33;1.17;;;;;;;;;;4945375;28;20077;-75
2021/03/23 14:37:03;;;;;;;2.10;1.00;;;;;;;;;;4960967;28;20111;-75
2021/03/23 14:39:34;;;;;;;2.07;0.83;;;;;;;;;;4993335;28;20034;-75
2021/03/23 14:41:59;;;;;;;1.60;0.95;;;;;;;;;;4961669;28;20030;-75
2021/03/23 14:44:25;;;;;;;3.03;0.83;;;;;;;;;;4992882;28;20041;-75
2021/03/23 14:46:50;;;;;;;2.00;1.00;;;;;;;;;;4976790;28;20172;-75
2021/03/23 14:49:15;;;;;;;1.70;0.90;;;;;;;;;;4993087;28;20054;-75
2021/03/23 14:51:42;;;;;;;2.93;1.10;;;;;;;;;;4944776;28;20034;-75
2021/03/23 14:54:10;;;;;;;2.15;1.10;;;;;;;;;;4960820;28;20156;-75
2021/03/23 14:56:36;;;;;;;1.77;0.88;;;;;;;;;;4945011;28;20069;-74
2021/03/23 14:59:02;;;;;;;1.83;1.00;;;;;;;;;;4960686;28;20130;-74
2021/03/23 15:01:28;;;;;;;1.90;0.90;;;;;;;;;;4960819;28;20449;-74
2021/03/23 15:03:53;;;;;;;2.03;1.00;;;;;;;;;;4976696;28;20081;-74